createdAt,value
2018-02-19T00:00:21.194Z,3.80
2018-02-19T00:02:49.407Z,3.80
2018-02-19T00:05:17.081Z,3.80
2018-02-19T00:07:44.562Z,3.80
2018-02-19T00:10:11.990Z,3.60
2018-02-19T00:12:39.466Z,3.60
2018-02-19T00:15:06.922Z,3.60
2018-02-19T00:17:34.382Z,3.60
2018-02-19T00:20:01.839Z,3.60
2018-02-19T00:22:29.284Z,3.60
2018-02-19T00:24:56.749Z,3.60
2018-02-19T00:27:24.202Z,3.60
2018-02-19T00:29:51.667Z,3.50
2018-02-19T00:32:19.106Z,3.40
2018-02-19T00:34:46.662Z,3.30
2018-02-19T00:37:14.122Z,3.30
2018-02-19T00:39:41.572Z,3.40
2018-02-19T00:42:08.998Z,3.40
2018-02-19T00:44:36.435Z,3.40
2018-02-19T00:47:04.643Z,3.50
2018-02-19T00:49:32.101Z,3.40
2018-02-19T00:51:59.571Z,3.50
2018-02-19T00:54:27.042Z,3.40
2018-02-19T00:56:54.494Z,3.40
2018-02-19T00:59:21.954Z,3.40
2018-02-19T01:01:49.410Z,3.40
2018-02-19T01:04:16.856Z,3.40
2018-02-19T01:06:44.322Z,3.30
2018-02-19T01:09:11.764Z,3.30
2018-02-19T01:11:39.207Z,3.40
2018-02-19T01:14:06.646Z,3.40
2018-02-19T01:16:34.243Z,3.40
2018-02-19T01:19:01.695Z,3.40
2018-02-19T01:21:29.154Z,3.50
2018-02-19T01:23:56.688Z,3.40
2018-02-19T01:26:24.138Z,3.30
2018-02-19T01:28:51.567Z,3.40
2018-02-19T01:31:19.790Z,3.50
2018-02-19T01:33:47.229Z,3.40
2018-02-19T01:36:14.710Z,3.50
2018-02-19T01:38:42.174Z,3.50
2018-02-19T01:41:09.618Z,3.40
2018-02-19T01:43:37.060Z,3.50
2018-02-19T01:46:04.550Z,3.50
2018-02-19T01:48:31.994Z,3.50
2018-02-19T01:50:59.433Z,3.50
2018-02-19T01:53:26.886Z,3.50
2018-02-19T01:55:54.330Z,3.60
2018-02-19T01:58:21.863Z,3.50
2018-02-19T02:00:50.081Z,3.50
2018-02-19T02:03:17.537Z,3.40
2018-02-19T02:05:44.988Z,3.50
2018-02-19T02:08:12.425Z,3.60
2018-02-19T02:10:39.924Z,3.50
2018-02-19T02:13:07.368Z,3.50
2018-02-19T02:15:34.914Z,3.50
2018-02-19T02:18:02.348Z,3.50
2018-02-19T02:20:29.782Z,3.50
2018-02-19T02:22:58.024Z,3.40
2018-02-19T02:25:25.475Z,3.40
2018-02-19T02:27:52.906Z,3.50
2018-02-19T02:30:20.333Z,3.50
2018-02-19T02:32:48.540Z,3.60
2018-02-19T02:35:16.024Z,3.50
2018-02-19T02:37:43.467Z,3.60
2018-02-19T02:40:10.902Z,3.60
2018-02-19T02:42:38.381Z,3.60
2018-02-19T02:45:05.816Z,3.60
2018-02-19T02:47:33.262Z,3.60
2018-02-19T02:50:00.690Z,3.70
2018-02-19T02:52:28.907Z,3.60
2018-02-19T02:54:56.332Z,3.60
2018-02-19T02:57:24.576Z,3.60
2018-02-19T02:59:52.035Z,3.60
2018-02-19T03:02:19.573Z,3.50
2018-02-19T03:04:47.006Z,3.50
2018-02-19T03:07:14.437Z,3.50
2018-02-19T03:09:42.642Z,3.50
2018-02-19T03:12:10.111Z,3.50
2018-02-19T03:14:37.551Z,3.60
2018-02-19T03:17:04.985Z,3.60
2018-02-19T03:19:32.430Z,3.70
2018-02-19T03:22:00.635Z,3.90
2018-02-19T03:24:28.076Z,3.80
2018-02-19T03:26:55.505Z,3.90
2018-02-19T03:29:23.741Z,4.00
2018-02-19T03:31:51.172Z,3.90
2018-02-19T03:34:18.614Z,3.90
2018-02-19T03:36:46.050Z,3.90
2018-02-19T03:39:14.288Z,3.80
2018-02-19T03:41:41.725Z,3.80
2018-02-19T03:44:09.201Z,3.90
2018-02-19T03:46:36.658Z,3.90
2018-02-19T03:49:04.119Z,3.80
2018-02-19T03:51:31.569Z,3.80
2018-02-19T03:53:59.027Z,3.90
2018-02-19T03:56:26.482Z,3.90
2018-02-19T03:58:53.939Z,4.00
2018-02-19T04:01:21.382Z,4.00
2018-02-19T04:03:48.854Z,3.90
2018-02-19T04:06:16.305Z,3.90
2018-02-19T04:08:43.749Z,3.80
2018-02-19T04:11:11.208Z,3.70
2018-02-19T04:13:38.652Z,3.80
2018-02-19T04:16:06.090Z,3.70
2018-02-19T04:18:33.530Z,3.90
2018-02-19T04:21:01.737Z,4.00
2018-02-19T04:23:29.169Z,4.00
2018-02-19T04:25:56.602Z,3.90
2018-02-19T04:28:24.813Z,4.00
2018-02-19T04:30:52.301Z,4.00
2018-02-19T04:33:19.750Z,4.00
2018-02-19T04:35:47.213Z,3.90
2018-02-19T04:38:14.678Z,3.80
2018-02-19T04:40:42.130Z,3.70
2018-02-19T04:43:09.560Z,3.60
2018-02-19T04:45:50.028Z,3.60
2018-02-19T04:48:17.506Z,3.50
2018-02-19T04:50:44.954Z,3.50
2018-02-19T04:53:12.409Z,3.60
2018-02-19T04:55:39.974Z,3.70
2018-02-19T04:58:07.413Z,3.70
2018-02-19T05:00:34.966Z,3.60
2018-02-19T05:03:02.447Z,3.60
2018-02-19T05:05:29.886Z,3.80
2018-02-19T05:07:57.349Z,3.80
2018-02-19T05:10:24.783Z,3.90
2018-02-19T05:12:52.381Z,4.00
2018-02-19T05:15:19.822Z,4.10
2018-02-19T05:17:47.260Z,4.10
2018-02-19T05:20:14.735Z,4.10
2018-02-19T05:22:42.287Z,4.20
2018-02-19T05:25:09.771Z,4.20
2018-02-19T05:27:37.314Z,4.20
2018-02-19T05:30:04.752Z,4.20
2018-02-19T05:32:32.251Z,4.30
2018-02-19T05:34:59.690Z,4.30
2018-02-19T05:37:27.143Z,4.30
2018-02-19T05:39:54.586Z,4.30
2018-02-19T05:42:22.026Z,4.30
2018-02-19T05:44:50.335Z,4.30
2018-02-19T05:47:17.882Z,4.20
2018-02-19T05:49:45.354Z,4.20
2018-02-19T05:52:12.791Z,4.20
2018-02-19T05:54:40.221Z,4.20
2018-02-19T05:57:07.659Z,4.20
2018-02-19T05:59:35.931Z,4.30
2018-02-19T06:02:03.309Z,4.30
2018-02-19T06:04:30.737Z,4.30
2018-02-19T06:06:58.957Z,4.20
2018-02-19T06:09:26.396Z,4.20
2018-02-19T06:11:53.827Z,4.20
2018-02-19T06:14:22.059Z,4.20
2018-02-19T06:16:49.502Z,4.20
2018-02-19T06:19:16.970Z,4.20
2018-02-19T06:21:44.423Z,4.10
2018-02-19T06:24:11.865Z,4.20
2018-02-19T06:26:39.298Z,4.20
2018-02-19T06:29:06.784Z,4.30
2018-02-19T06:31:34.304Z,4.30
2018-02-19T06:34:01.811Z,4.30
2018-02-19T06:36:29.241Z,4.40
2018-02-19T06:38:56.694Z,4.30
2018-02-19T06:41:24.204Z,4.30
2018-02-19T06:43:51.650Z,4.20
2018-02-19T06:46:19.173Z,4.30
2018-02-19T06:48:46.606Z,4.30
2018-02-19T06:51:14.084Z,4.30
2018-02-19T06:53:41.544Z,4.20
2018-02-19T06:56:09.019Z,4.30
2018-02-19T06:58:36.506Z,4.40
2018-02-19T07:01:03.952Z,4.30
2018-02-19T07:03:31.473Z,4.30
2018-02-19T07:06:00.078Z,4.30
2018-02-19T07:08:27.526Z,4.40
2018-02-19T07:10:54.958Z,4.50
2018-02-19T07:13:22.415Z,4.50
2018-02-19T07:15:49.858Z,4.40
2018-02-19T07:18:17.302Z,4.50
2018-02-19T07:20:45.511Z,4.70
2018-02-19T07:23:13.900Z,4.60
2018-02-19T07:25:41.365Z,4.60
2018-02-19T07:28:08.928Z,4.60
2018-02-19T07:30:36.395Z,4.60
2018-02-19T07:33:03.875Z,4.70
2018-02-19T07:35:31.360Z,4.70
2018-02-19T07:37:58.846Z,4.70
2018-02-19T07:40:26.324Z,4.60
2018-02-19T07:42:53.863Z,4.60
2018-02-19T07:45:21.331Z,4.70
2018-02-19T07:47:48.807Z,4.70
2018-02-19T07:50:16.610Z,4.70
2018-02-19T07:52:44.895Z,4.90
2018-02-19T07:55:12.351Z,4.80
2018-02-19T07:57:39.782Z,4.90
2018-02-19T08:00:08.003Z,4.90
2018-02-19T08:02:35.490Z,4.90
2018-02-19T08:05:03.866Z,5.00
2018-02-19T08:07:31.407Z,4.90
2018-02-19T08:09:58.859Z,5.00
2018-02-19T08:12:26.363Z,5.00
2018-02-19T08:14:53.870Z,5.00
2018-02-19T08:17:21.423Z,5.00
2018-02-19T08:19:48.859Z,5.00
2018-02-19T08:22:16.298Z,5.10
2018-02-19T08:24:43.810Z,5.20
2018-02-19T08:27:11.270Z,5.10
2018-02-19T08:29:38.784Z,5.10
2018-02-19T08:32:06.215Z,5.00
2018-02-19T08:34:33.651Z,4.90
2018-02-19T08:37:01.868Z,5.10
2018-02-19T08:39:29.325Z,5.10
2018-02-19T08:41:56.754Z,5.20
2018-02-19T08:44:24.357Z,5.20
2018-02-19T08:46:51.790Z,5.40
2018-02-19T08:49:19.227Z,5.50
2018-02-19T08:51:46.735Z,5.80
2018-02-19T08:54:14.202Z,5.90
2018-02-19T08:56:41.658Z,5.80
2018-02-19T08:59:09.117Z,5.70
2018-02-19T09:01:36.560Z,5.60
2018-02-19T09:04:04.014Z,5.60
2018-02-19T09:06:31.498Z,5.70
2018-02-19T09:08:58.947Z,5.70
2018-02-19T09:11:26.404Z,5.70
2018-02-19T09:13:53.919Z,5.60
2018-02-19T09:16:21.359Z,5.50
2018-02-19T09:18:48.913Z,5.40
2018-02-19T09:21:16.328Z,5.30
2018-02-19T09:23:43.782Z,5.30
2018-02-19T09:26:11.359Z,5.30
2018-02-19T09:28:39.682Z,5.20
2018-02-19T09:31:07.124Z,5.20
2018-02-19T09:33:34.578Z,5.20
2018-02-19T09:36:02.175Z,5.20
2018-02-19T09:38:29.645Z,5.20
2018-02-19T09:40:57.366Z,5.20
2018-02-19T09:43:24.792Z,5.30
2018-02-19T09:45:52.247Z,5.30
2018-02-19T09:48:20.470Z,5.30
2018-02-19T09:50:47.906Z,5.20
2018-02-19T09:53:15.346Z,5.20
2018-02-19T09:55:42.792Z,5.20
2018-02-19T09:58:10.998Z,5.20
2018-02-19T10:00:38.462Z,5.10
2018-02-19T10:03:05.889Z,5.20
2018-02-19T10:05:33.378Z,5.20
2018-02-19T10:08:00.806Z,5.30
2018-02-19T10:10:28.261Z,5.40
2018-02-19T10:12:56.478Z,5.40
2018-02-19T10:15:23.948Z,5.40
2018-02-19T10:17:51.389Z,5.50
2018-02-19T10:20:18.857Z,5.50
2018-02-19T10:22:46.306Z,5.50
2018-02-19T10:25:13.787Z,5.70
2018-02-19T10:27:41.213Z,5.80
2018-02-19T10:30:08.662Z,6.10
2018-02-19T10:32:36.114Z,6.20
2018-02-19T10:35:03.594Z,6.30
2018-02-19T10:37:31.064Z,6.20
2018-02-19T10:39:58.502Z,6.20
2018-02-19T10:42:25.954Z,6.40
2018-02-19T10:44:53.401Z,6.60
2018-02-19T10:47:20.838Z,6.60
2018-02-19T10:49:48.278Z,6.60
2018-02-19T10:52:15.969Z,6.50
2018-02-19T10:54:43.401Z,6.40
2018-02-19T10:57:10.845Z,6.30
2018-02-19T10:59:39.085Z,6.20
2018-02-19T11:02:06.659Z,6.20
2018-02-19T11:04:34.202Z,6.20
2018-02-19T11:07:01.858Z,6.30
2018-02-19T11:09:29.308Z,6.40
2018-02-19T11:11:56.795Z,6.50
2018-02-19T11:14:24.243Z,6.30
2018-02-19T11:16:53.196Z,6.10
2018-02-19T11:19:20.629Z,6.10
2018-02-19T11:21:49.126Z,6.20
2018-02-19T11:24:16.612Z,6.20
2018-02-19T11:26:44.055Z,6.20
2018-02-19T11:29:11.515Z,6.20
2018-02-19T11:31:39.053Z,6.10
2018-02-19T11:34:06.499Z,6.00
2018-02-19T11:36:33.967Z,6.10
2018-02-19T11:39:01.413Z,6.10
2018-02-19T11:41:28.847Z,5.90
2018-02-19T11:43:56.475Z,5.90
2018-02-19T11:46:23.947Z,6.00
2018-02-19T11:48:51.461Z,6.10
2018-02-19T11:51:18.937Z,6.30
2018-02-19T11:53:46.410Z,6.50
2018-02-19T11:56:13.886Z,6.60
2018-02-19T11:58:44.252Z,6.70
2018-02-19T12:01:11.695Z,6.70
2018-02-19T12:03:39.163Z,7.00
2018-02-19T12:06:06.680Z,7.00
2018-02-19T12:08:34.075Z,7.20
2018-02-19T12:11:01.534Z,7.40
2018-02-19T12:13:29.080Z,7.50
2018-02-19T12:15:56.947Z,7.60
2018-02-19T12:18:24.402Z,7.70
2018-02-19T12:20:51.912Z,7.80
2018-02-19T12:23:19.346Z,7.90
2018-02-19T12:25:46.809Z,8.20
2018-02-19T12:28:14.254Z,8.20
2018-02-19T12:30:41.702Z,8.30
2018-02-19T12:33:09.256Z,8.30
2018-02-19T12:35:36.702Z,8.30
2018-02-19T12:38:04.188Z,8.20
2018-02-19T12:40:31.635Z,8.00
2018-02-19T12:42:59.084Z,8.00
2018-02-19T12:45:26.635Z,8.20
2018-02-19T12:47:54.071Z,8.30
2018-02-19T12:50:21.576Z,8.40
2018-02-19T12:52:49.104Z,8.50
2018-02-19T12:55:16.602Z,8.40
2018-02-19T12:57:44.035Z,8.30
2018-02-19T13:00:11.486Z,8.30
2018-02-19T13:02:38.918Z,8.30
2018-02-19T13:05:06.422Z,8.40
2018-02-19T13:07:34.047Z,8.40
2018-02-19T13:10:01.473Z,8.50
2018-02-19T13:12:28.982Z,8.40
2018-02-19T13:14:56.431Z,8.50
2018-02-19T13:17:23.878Z,8.30
2018-02-19T13:19:51.430Z,8.30
2018-02-19T13:22:18.901Z,8.50
2018-02-19T13:24:46.344Z,8.60
2018-02-19T13:27:13.784Z,8.70
2018-02-19T13:29:41.220Z,8.60
2018-02-19T13:32:09.446Z,8.40
2018-02-19T13:34:36.987Z,8.30
2018-02-19T13:37:04.651Z,8.70
2018-02-19T13:39:32.132Z,8.40
2018-02-19T13:41:59.666Z,8.40
2018-02-19T13:44:27.116Z,8.40
2018-02-19T13:46:54.697Z,8.40
2018-02-19T13:49:22.134Z,8.50
2018-02-19T13:51:49.586Z,8.60
2018-02-19T13:54:17.082Z,8.60
2018-02-19T13:56:44.532Z,8.50
2018-02-19T13:59:11.996Z,8.70
2018-02-19T14:01:39.552Z,8.80
2018-02-19T14:04:07.010Z,8.70
2018-02-19T14:06:34.479Z,8.40
2018-02-19T14:09:02.060Z,8.10
2018-02-19T14:11:30.269Z,8.00
2018-02-19T14:13:57.828Z,7.90
2018-02-19T14:16:25.317Z,8.10
2018-02-19T14:18:53.695Z,8.20
2018-02-19T14:21:21.149Z,8.10
2018-02-19T14:23:48.729Z,8.10
2018-02-19T14:26:16.174Z,8.00
2018-02-19T14:28:43.624Z,8.20
2018-02-19T14:31:11.056Z,8.20
2018-02-19T14:33:38.542Z,8.30
2018-02-19T14:36:05.987Z,8.20
2018-02-19T14:38:33.550Z,8.30
2018-02-19T14:41:01.110Z,8.40
2018-02-19T14:43:28.566Z,8.60
2018-02-19T14:45:56.191Z,8.70
2018-02-19T14:48:23.631Z,8.70
2018-02-19T14:50:51.098Z,8.40
2018-02-19T14:53:18.662Z,8.30
2018-02-19T14:55:46.124Z,8.20
2018-02-19T14:58:13.583Z,8.20
2018-02-19T15:00:41.050Z,8.00
2018-02-19T15:03:08.491Z,7.80
2018-02-19T15:05:35.937Z,7.60
2018-02-19T15:08:03.405Z,7.50
2018-02-19T15:10:30.857Z,7.40
2018-02-19T15:12:58.312Z,7.30
2018-02-19T15:15:25.749Z,7.20
2018-02-19T15:17:53.963Z,7.10
2018-02-19T15:20:21.395Z,7.00
2018-02-19T15:22:48.862Z,9.70
2018-02-19T15:25:16.327Z,7.00
2018-02-19T15:27:43.791Z,7.00
2018-02-19T15:30:11.248Z,6.90
2018-02-19T15:32:38.784Z,6.90
2018-02-19T15:35:06.202Z,6.80
2018-02-19T15:37:34.474Z,6.70
2018-02-19T15:40:02.814Z,6.70
2018-02-19T15:42:30.234Z,6.60
2018-02-19T15:44:58.090Z,6.70
2018-02-19T15:47:26.289Z,6.70
2018-02-19T15:49:53.743Z,6.70
2018-02-19T15:52:21.186Z,6.70
2018-02-19T15:54:48.629Z,6.70
2018-02-19T15:57:16.821Z,6.60
2018-02-19T15:59:45.034Z,6.60
2018-02-19T16:02:12.489Z,6.60
2018-02-19T16:04:40.734Z,6.50
2018-02-19T16:07:08.499Z,6.50
2018-02-19T16:09:35.921Z,6.50
2018-02-19T16:12:04.233Z,6.40
2018-02-19T16:14:31.676Z,6.30
2018-02-19T16:16:59.871Z,6.40
2018-02-19T16:19:27.322Z,6.30
2018-02-19T16:21:54.775Z,6.40
2018-02-19T16:24:22.240Z,6.40
2018-02-19T16:26:49.706Z,6.30
2018-02-19T16:29:17.135Z,6.30
2018-02-19T16:31:44.609Z,6.30
2018-02-19T16:34:12.057Z,6.20
2018-02-19T16:36:39.492Z,6.20
2018-02-19T16:39:06.923Z,6.20
2018-02-19T16:41:34.410Z,6.10
2018-02-19T16:44:01.863Z,6.10
2018-02-19T16:46:29.377Z,6.20
2018-02-19T16:48:57.238Z,6.20
2018-02-19T16:51:24.688Z,6.10
2018-02-19T16:53:52.126Z,6.10
2018-02-19T16:56:19.607Z,6.00
2018-02-19T16:58:47.058Z,5.90
2018-02-19T17:01:14.512Z,5.90
2018-02-19T17:03:42.043Z,5.90
2018-02-19T17:06:09.462Z,5.90
2018-02-19T17:08:37.711Z,5.90
2018-02-19T17:11:05.234Z,5.90
2018-02-19T17:13:32.671Z,5.90
2018-02-19T17:16:00.247Z,5.90
2018-02-19T17:18:27.762Z,5.90
2018-02-19T17:20:56.015Z,6.20
2018-02-19T17:23:23.472Z,6.10
2018-02-19T17:25:51.047Z,6.30
2018-02-19T17:28:19.259Z,6.40
2018-02-19T17:30:46.712Z,6.40
2018-02-19T17:33:14.215Z,6.30
2018-02-19T17:35:41.658Z,6.40
2018-02-19T17:38:09.141Z,6.40
2018-02-19T17:40:36.585Z,6.40
2018-02-19T17:43:04.071Z,6.40
2018-02-19T17:45:32.307Z,6.40
2018-02-19T17:47:59.756Z,6.30
2018-02-19T17:50:27.185Z,6.30
2018-02-19T17:52:54.651Z,6.40
2018-02-19T17:55:22.090Z,6.40
2018-02-19T17:57:49.602Z,6.50
2018-02-19T18:00:17.070Z,6.60
2018-02-19T18:02:44.509Z,6.60
2018-02-19T18:05:12.190Z,6.70
2018-02-19T18:07:39.697Z,6.80
2018-02-19T18:10:07.313Z,6.80
2018-02-19T18:12:35.660Z,6.70
2018-02-19T18:15:03.610Z,6.70
2018-02-19T18:17:31.069Z,6.70
2018-02-19T18:19:58.529Z,6.80
2018-02-19T18:22:25.982Z,6.70
2018-02-19T18:24:53.419Z,6.70
2018-02-19T18:27:20.890Z,6.70
2018-02-19T18:29:48.338Z,6.70
2018-02-19T18:32:15.780Z,6.70
2018-02-19T18:34:43.235Z,6.70
2018-02-19T18:37:10.685Z,6.60
2018-02-19T18:39:38.878Z,6.60
2018-02-19T18:42:06.349Z,6.60
2018-02-19T18:44:33.795Z,6.60
2018-02-19T18:47:01.254Z,6.40
2018-02-19T18:49:28.704Z,6.40
2018-02-19T18:51:56.175Z,6.20
2018-02-19T18:54:23.610Z,6.20
2018-02-19T18:56:51.179Z,6.20
2018-02-19T18:59:18.594Z,6.30
2018-02-19T19:01:46.802Z,6.30
2018-02-19T19:04:14.369Z,6.20
2018-02-19T19:06:41.797Z,6.30
2018-02-19T19:09:20.991Z,6.30
2018-02-19T19:11:48.443Z,6.30
2018-02-19T19:14:15.896Z,6.40
2018-02-19T19:16:43.330Z,6.30
2018-02-19T19:19:10.761Z,6.20
2018-02-19T19:21:38.203Z,6.30
2018-02-19T19:24:06.414Z,6.30
2018-02-19T19:26:33.869Z,6.20
2018-02-19T19:29:01.305Z,6.20
2018-02-19T19:31:28.750Z,6.10
2018-02-19T19:33:56.942Z,5.90
2018-02-19T19:36:24.389Z,5.90
2018-02-19T19:38:51.820Z,5.90
2018-02-19T19:41:20.030Z,5.80
2018-02-19T19:43:47.458Z,5.80
2018-02-19T19:46:15.673Z,5.80
2018-02-19T19:48:43.102Z,5.70
2018-02-19T19:51:10.557Z,5.70
2018-02-19T19:53:37.993Z,5.50
2018-02-19T19:56:05.453Z,5.40
2018-02-19T19:58:33.660Z,5.50
2018-02-19T20:01:01.106Z,5.40
2018-02-19T20:03:28.607Z,5.50
2018-02-19T20:05:56.037Z,5.50
2018-02-19T20:08:23.487Z,5.50
2018-02-19T20:10:50.914Z,5.60
2018-02-19T20:13:19.182Z,5.50
2018-02-19T20:15:46.565Z,5.50
2018-02-19T20:18:14.002Z,5.50
2018-02-19T20:20:41.442Z,5.40
2018-02-19T20:23:09.738Z,5.40
2018-02-19T20:25:37.168Z,5.30
2018-02-19T20:28:04.623Z,5.30
2018-02-19T20:30:32.070Z,5.30
2018-02-19T20:32:59.490Z,5.30
2018-02-19T20:35:26.914Z,5.30
2018-02-19T20:37:55.153Z,5.10
2018-02-19T20:40:22.578Z,5.10
2018-02-19T20:42:50.018Z,4.90
2018-02-19T20:45:17.449Z,4.90
2018-02-19T20:47:45.657Z,4.80
2018-02-19T20:50:13.097Z,4.70
2018-02-19T20:52:41.306Z,4.90
2018-02-19T20:55:08.797Z,4.80
2018-02-19T20:57:36.196Z,4.90
2018-02-19T21:00:03.634Z,4.90
2018-02-19T21:02:31.079Z,5.00
2018-02-19T21:04:59.275Z,4.90
2018-02-19T21:07:26.733Z,4.80
2018-02-19T21:09:54.172Z,5.00
2018-02-19T21:12:21.609Z,5.00
2018-02-19T21:14:49.818Z,4.90
2018-02-19T21:17:17.979Z,4.80
2018-02-19T21:19:45.416Z,4.80
2018-02-19T21:22:13.618Z,4.70
2018-02-19T21:24:41.050Z,4.70
2018-02-19T21:27:09.255Z,4.70
2018-02-19T21:29:36.734Z,4.60
2018-02-19T21:32:04.213Z,4.60
2018-02-19T21:34:31.664Z,4.60
2018-02-19T21:36:59.110Z,4.60
2018-02-19T21:39:26.555Z,4.60
2018-02-19T21:41:53.994Z,4.60
2018-02-19T21:44:21.429Z,4.50
2018-02-19T21:46:48.870Z,4.50
2018-02-19T21:49:16.314Z,4.50
2018-02-19T21:51:43.752Z,4.40
2018-02-19T21:54:11.187Z,4.40
2018-02-19T21:56:38.613Z,4.50
2018-02-19T21:59:06.041Z,4.40
2018-02-19T22:01:34.259Z,4.50
2018-02-19T22:04:01.715Z,4.50
2018-02-19T22:06:29.172Z,4.50
2018-02-19T22:08:56.585Z,4.40
2018-02-19T22:11:24.794Z,4.30
2018-02-19T22:13:52.226Z,4.30
2018-02-19T22:16:20.426Z,4.30
2018-02-19T22:18:47.853Z,4.30
2018-02-19T22:21:16.070Z,4.40
2018-02-19T22:23:43.510Z,4.30
2018-02-19T22:26:10.947Z,4.40
2018-02-19T22:28:39.249Z,4.30
2018-02-19T22:31:06.677Z,4.30
2018-02-19T22:33:34.881Z,4.20
2018-02-19T22:36:02.322Z,4.20
2018-02-19T22:38:29.775Z,4.00
2018-02-19T22:40:57.223Z,4.00
2018-02-19T22:43:25.425Z,4.10
2018-02-19T22:45:52.910Z,4.10
2018-02-19T22:48:20.466Z,4.10
2018-02-19T22:50:47.905Z,4.10
2018-02-19T22:53:15.374Z,4.10
2018-02-19T22:55:42.794Z,4.10
2018-02-19T22:58:10.277Z,4.00
2018-02-19T23:00:37.700Z,4.10
2018-02-19T23:03:05.130Z,4.10
2018-02-19T23:05:33.334Z,4.00
2018-02-19T23:08:00.866Z,3.90
2018-02-19T23:10:29.149Z,3.90
2018-02-19T23:12:57.431Z,3.90
2018-02-19T23:15:24.947Z,3.80
2018-02-19T23:17:52.399Z,3.90
2018-02-19T23:20:19.843Z,3.90
2018-02-19T23:22:47.301Z,3.70
2018-02-19T23:25:14.728Z,3.60
2018-02-19T23:27:42.215Z,3.50
2018-02-19T23:30:09.651Z,3.40
2018-02-19T23:32:37.129Z,3.50
2018-02-19T23:35:04.575Z,3.50
2018-02-19T23:37:32.014Z,3.60
2018-02-19T23:39:59.493Z,3.60
2018-02-19T23:42:26.962Z,3.60
2018-02-19T23:44:54.367Z,3.60
2018-02-19T23:47:21.798Z,3.60
2018-02-19T23:49:49.992Z,3.50
2018-02-19T23:52:17.438Z,3.40
2018-02-19T23:54:45.666Z,3.50
2018-02-19T23:57:13.130Z,3.40
2018-02-19T23:59:40.578Z,3.30
